createdAt,value
2022-07-25T00:00:25.979Z,100513.56
2022-07-25T00:02:52.481Z,100506.72
2022-07-25T00:05:19.003Z,100502.28
2022-07-25T00:07:45.495Z,100506.22
2022-07-25T00:10:12.118Z,100500.91
2022-07-25T00:12:38.700Z,100501.50
2022-07-25T00:15:06.325Z,100509.06
2022-07-25T00:17:32.841Z,100500.66
2022-07-25T00:19:59.362Z,100501.44
2022-07-25T00:22:25.887Z,100498.84
2022-07-25T00:24:52.493Z,100496.47
2022-07-25T00:27:19.088Z,100503.03
2022-07-25T00:29:45.682Z,100504.69
2022-07-25T00:32:12.519Z,100503.72
2022-07-25T00:34:39.125Z,100497.97
2022-07-25T00:37:05.656Z,100486.22
2022-07-25T00:39:32.202Z,100485.53
2022-07-25T00:42:02.326Z,100483.78
2022-07-25T00:44:31.134Z,100484.03
2022-07-25T00:46:58.788Z,100484.72
2022-07-25T00:49:26.087Z,100477.78
2022-07-25T00:51:54.231Z,100475.31
2022-07-25T00:54:21.866Z,100469.13
2022-07-25T00:56:49.346Z,100463.78
2022-07-25T00:59:17.129Z,100459.13
2022-07-25T01:01:45.631Z,100453.34
2022-07-25T01:04:12.332Z,100456.25
2022-07-25T01:06:39.099Z,100446.31
2022-07-25T01:09:05.816Z,100441.91
2022-07-25T01:11:32.587Z,100447.03
2022-07-25T01:13:59.313Z,100446.19
2022-07-25T01:16:25.861Z,100431.72
2022-07-25T01:18:52.427Z,100439.72
2022-07-25T01:21:18.979Z,100430.78
2022-07-25T01:23:45.439Z,100440.53
2022-07-25T01:26:11.976Z,100443.75
2022-07-25T01:28:38.549Z,100440.22
2022-07-25T01:31:05.804Z,100428.88
2022-07-25T01:33:32.470Z,100428.72
2022-07-25T01:35:59.168Z,100422.09
2022-07-25T01:38:25.712Z,100430.69
2022-07-25T01:40:52.279Z,100429.69
2022-07-25T01:43:18.826Z,100426.31
2022-07-25T01:45:45.304Z,100421.28
2022-07-25T01:48:11.823Z,100427.34
2022-07-25T01:50:38.336Z,100419.56
2022-07-25T01:53:05.323Z,100419.34
2022-07-25T01:55:31.967Z,100417.81
2022-07-25T01:57:59.198Z,100398.78
2022-07-25T02:00:26.329Z,100410.03
2022-07-25T02:03:12.849Z,100401.25
2022-07-25T02:05:39.517Z,100412.56
2022-07-25T02:08:06.266Z,100412.13
2022-07-25T02:10:33.106Z,100399.13
2022-07-25T02:13:00.719Z,100395.44
2022-07-25T02:15:27.262Z,100388.91
2022-07-25T02:17:53.835Z,100393.28
2022-07-25T02:20:20.408Z,100390.03
2022-07-25T02:22:46.917Z,100384.88
2022-07-25T02:25:13.450Z,100383.00
2022-07-25T02:27:40.004Z,100384.63
2022-07-25T02:30:07.250Z,100383.59
2022-07-25T02:32:33.820Z,100384.56
2022-07-25T02:35:00.320Z,100386.16
2022-07-25T02:37:26.881Z,100379.16
2022-07-25T02:39:53.322Z,100367.72
2022-07-25T02:42:19.841Z,100370.28
2022-07-25T02:44:46.397Z,100365.06
2022-07-25T02:47:12.927Z,100355.16
2022-07-25T02:49:39.453Z,100367.25
2022-07-25T02:52:05.985Z,100370.16
2022-07-25T02:54:32.494Z,100358.22
2022-07-25T02:56:58.976Z,100364.88
2022-07-25T02:59:25.476Z,100363.66
2022-07-25T03:01:58.795Z,100352.56
2022-07-25T03:04:25.494Z,100351.25
2022-07-25T03:06:52.060Z,100361.41
2022-07-25T03:09:19.118Z,100349.28
2022-07-25T03:11:46.283Z,100358.81
2022-07-25T03:14:12.716Z,100355.03
2022-07-25T03:16:39.267Z,100349.66
2022-07-25T03:19:10.202Z,100338.00
2022-07-25T03:21:40.206Z,100336.59
2022-07-25T03:24:07.167Z,100343.19
2022-07-25T03:26:33.884Z,100343.69
2022-07-25T03:29:00.390Z,100335.25
2022-07-25T03:31:26.940Z,100333.03
2022-07-25T03:33:53.436Z,100336.69
2022-07-25T03:36:19.944Z,100343.69
2022-07-25T03:38:46.517Z,100326.97
2022-07-25T03:41:13.563Z,100329.97
2022-07-25T03:43:40.238Z,100327.38
2022-07-25T03:46:06.871Z,100320.44
2022-07-25T03:48:33.529Z,100307.13
2022-07-25T03:51:04.884Z,100324.59
2022-07-25T03:53:33.546Z,100316.69
2022-07-25T03:56:00.008Z,100305.94
2022-07-25T03:58:26.520Z,100303.66
2022-07-25T04:00:53.055Z,100303.72
2022-07-25T04:03:19.820Z,100312.59
2022-07-25T04:05:47.749Z,100305.44
2022-07-25T04:08:14.554Z,100295.06
2022-07-25T04:10:41.028Z,100294.09
2022-07-25T04:13:08.401Z,100288.56
2022-07-25T04:15:34.895Z,100289.59
2022-07-25T04:18:01.393Z,100289.44
2022-07-25T04:20:28.637Z,100281.22
2022-07-25T04:22:55.930Z,100277.84
2022-07-25T04:25:22.426Z,100279.44
2022-07-25T04:27:48.980Z,100280.06
2022-07-25T04:30:23.736Z,100286.84
2022-07-25T04:32:51.771Z,100273.56
2022-07-25T04:35:18.239Z,100272.72
2022-07-25T04:37:44.682Z,100265.50
2022-07-25T04:40:11.761Z,100260.72
2022-07-25T04:42:38.283Z,100272.28
2022-07-25T04:45:05.065Z,100268.25
2022-07-25T04:47:31.577Z,100260.91
2022-07-25T04:49:58.101Z,100260.28
2022-07-25T04:52:24.627Z,100250.44
2022-07-25T04:54:51.086Z,100256.19
2022-07-25T04:57:17.603Z,100249.81
2022-07-25T04:59:44.379Z,100252.78
2022-07-25T05:02:11.107Z,100243.09
2022-07-25T05:04:43.372Z,100240.50
2022-07-25T05:07:11.675Z,100246.53
2022-07-25T05:09:38.326Z,100250.34
2022-07-25T05:12:04.932Z,100247.34
2022-07-25T05:14:31.728Z,100251.47
2022-07-25T05:16:58.235Z,100246.59
2022-07-25T05:19:24.972Z,100242.38
2022-07-25T05:21:51.701Z,100238.44
2022-07-25T05:24:18.216Z,100243.22
2022-07-25T05:26:44.686Z,100237.06
2022-07-25T05:29:12.091Z,100238.34
2022-07-25T05:32:00.021Z,100243.34
2022-07-25T05:34:29.956Z,100240.31
2022-07-25T05:37:02.397Z,100235.03
2022-07-25T05:39:38.798Z,100227.06
2022-07-25T05:42:10.148Z,100221.31
2022-07-25T05:44:42.931Z,100229.09
2022-07-25T05:47:14.688Z,100223.50
2022-07-25T05:49:47.743Z,100223.22
2022-07-25T05:52:16.812Z,100207.72
2022-07-25T05:54:55.971Z,100209.19
2022-07-25T05:57:45.276Z,100196.66
2022-07-25T06:00:42.065Z,100201.97
2022-07-25T06:03:24.256Z,100205.91
2022-07-25T06:06:05.116Z,100214.22
2022-07-25T06:08:31.624Z,100209.75
2022-07-25T06:11:00.523Z,100201.66
2022-07-25T06:13:28.463Z,100210.72
2022-07-25T06:15:55.021Z,100204.19
2022-07-25T06:18:22.058Z,100209.31
2022-07-25T06:20:48.812Z,100197.59
2022-07-25T06:23:16.367Z,100198.78
2022-07-25T06:25:42.955Z,100181.13
2022-07-25T06:28:18.345Z,100182.28
2022-07-25T06:30:45.749Z,100189.97
2022-07-25T06:33:13.295Z,100191.03
2022-07-25T06:35:39.836Z,100197.03
2022-07-25T06:38:06.467Z,100194.66
2022-07-25T06:40:33.159Z,100196.53
2022-07-25T06:43:00.066Z,100197.41
2022-07-25T06:45:26.593Z,100197.25
2022-07-25T06:47:53.282Z,100190.06
2022-07-25T06:50:21.340Z,100198.25
2022-07-25T06:52:48.188Z,100176.66
2022-07-25T06:55:15.834Z,100184.53
2022-07-25T06:57:43.339Z,100181.91
2022-07-25T07:00:12.121Z,100186.78
2022-07-25T07:02:53.160Z,100181.13
2022-07-25T07:05:20.774Z,100178.78
2022-07-25T07:07:48.234Z,100165.31
2022-07-25T07:10:16.002Z,100166.00
2022-07-25T07:12:42.621Z,100166.00
2022-07-25T07:15:09.688Z,100159.66
2022-07-25T07:17:36.726Z,100163.84
2022-07-25T07:20:05.250Z,100157.94
2022-07-25T07:22:31.807Z,100164.44
2022-07-25T07:24:59.138Z,100159.22
2022-07-25T07:27:25.657Z,100160.47
2022-07-25T07:29:52.136Z,100146.66
2022-07-25T07:32:18.829Z,100153.41
2022-07-25T07:34:45.375Z,100147.94
2022-07-25T07:37:11.860Z,100155.38
2022-07-25T07:39:38.397Z,100144.78
2022-07-25T07:42:04.978Z,100130.91
2022-07-25T07:44:31.535Z,100135.38
2022-07-25T07:47:02.490Z,100141.00
2022-07-25T07:49:29.846Z,100132.72
2022-07-25T07:51:56.531Z,100134.16
2022-07-25T07:54:41.786Z,100128.50
2022-07-25T07:57:08.373Z,100126.31
2022-07-25T07:59:34.944Z,100127.44
2022-07-25T08:02:01.867Z,100124.31
2022-07-25T08:04:28.507Z,100124.22
2022-07-25T08:06:55.061Z,100118.78
2022-07-25T08:09:21.645Z,100104.00
2022-07-25T08:11:48.212Z,100118.22
2022-07-25T08:14:15.079Z,100118.38
2022-07-25T08:16:41.697Z,100117.22
2022-07-25T08:19:09.277Z,100111.41
2022-07-25T08:21:35.845Z,100116.03
2022-07-25T08:24:02.368Z,100109.41
2022-07-25T08:26:30.463Z,100101.47
2022-07-25T08:29:17.620Z,100091.09
2022-07-25T08:31:43.913Z,100088.28
2022-07-25T08:34:10.554Z,100086.38
2022-07-25T08:36:37.746Z,100099.09
2022-07-25T08:39:04.432Z,100103.38
2022-07-25T08:41:33.399Z,100098.25
2022-07-25T08:44:03.274Z,100106.50
2022-07-25T08:46:31.214Z,100092.69
2022-07-25T08:48:58.141Z,100104.25
2022-07-25T08:51:24.963Z,100091.63
2022-07-25T08:53:51.958Z,100098.69
2022-07-25T08:56:21.198Z,100108.53
2022-07-25T08:58:49.481Z,100105.56
2022-07-25T09:01:16.177Z,100101.78
2022-07-25T09:03:43.559Z,100104.25
2022-07-25T09:06:20.993Z,100105.28
2022-07-25T09:09:14.045Z,100097.41
2022-07-25T09:11:40.501Z,100090.13
2022-07-25T09:14:10.339Z,100090.75
2022-07-25T09:16:44.356Z,100097.53
2022-07-25T09:19:22.230Z,100100.72
2022-07-25T09:22:17.947Z,100105.09
2022-07-25T09:24:45.844Z,100106.63
2022-07-25T09:27:13.054Z,100100.63
2022-07-25T09:29:42.557Z,100099.56
2022-07-25T09:32:15.142Z,100104.25
2022-07-25T09:34:43.272Z,100101.38
2022-07-25T09:37:14.676Z,100101.69
2022-07-25T09:39:47.110Z,100102.66
2022-07-25T09:42:28.734Z,100106.94
2022-07-25T09:45:06.711Z,100096.03
2022-07-25T09:47:36.144Z,100094.63
2022-07-25T09:50:04.200Z,100101.59
2022-07-25T09:52:31.545Z,100094.88
2022-07-25T09:54:58.057Z,100084.69
2022-07-25T09:57:25.783Z,100075.03
2022-07-25T09:59:54.063Z,100083.59
2022-07-25T10:02:39.240Z,100083.19
2022-07-25T10:05:32.102Z,100088.00
2022-07-25T10:07:59.376Z,100086.81
2022-07-25T10:10:31.363Z,100093.75
2022-07-25T10:13:06.501Z,100102.97
2022-07-25T10:15:45.457Z,100119.66
2022-07-25T10:18:13.847Z,100105.53
2022-07-25T10:20:40.990Z,100104.66
2022-07-25T10:23:19.293Z,100088.13
2022-07-25T10:25:49.127Z,100096.16
2022-07-25T10:28:18.819Z,100086.66
2022-07-25T10:30:45.725Z,100080.22
2022-07-25T10:33:15.578Z,100079.06
2022-07-25T10:35:43.443Z,100064.63
2022-07-25T10:38:10.373Z,100069.09
2022-07-25T10:40:46.439Z,100075.34
2022-07-25T10:43:15.332Z,100085.69
2022-07-25T10:45:58.437Z,100079.25
2022-07-25T10:48:27.996Z,100082.69
2022-07-25T10:51:03.035Z,100080.97
2022-07-25T10:53:33.164Z,100093.31
2022-07-25T10:56:08.165Z,100084.97
2022-07-25T10:58:52.671Z,100079.13
2022-07-25T11:01:40.561Z,100075.38
2022-07-25T11:04:15.860Z,100072.25
2022-07-25T11:06:43.175Z,100063.81
2022-07-25T11:09:24.950Z,100075.31
2022-07-25T11:11:58.316Z,100070.78
2022-07-25T11:14:27.534Z,100075.66
2022-07-25T11:16:56.030Z,100072.00
2022-07-25T11:19:29.793Z,100050.13
2022-07-25T11:21:58.879Z,100068.41
2022-07-25T11:24:45.792Z,100067.81
2022-07-25T11:27:21.103Z,100087.84
2022-07-25T11:29:47.672Z,100071.91
2022-07-25T11:32:14.517Z,100081.47
2022-07-25T11:34:52.284Z,100077.53
2022-07-25T11:37:19.922Z,100077.34
2022-07-25T11:39:48.509Z,100084.06
2022-07-25T11:42:18.627Z,100086.16
2022-07-25T11:44:49.170Z,100080.09
2022-07-25T11:47:27.688Z,100079.88
2022-07-25T11:49:55.966Z,100073.88
2022-07-25T11:52:34.054Z,100073.47
2022-07-25T11:55:13.968Z,100078.72
2022-07-25T11:57:46.476Z,100079.97
2022-07-25T12:00:17.282Z,100082.50
2022-07-25T12:02:44.592Z,100080.66
2022-07-25T12:05:13.876Z,100068.66
2022-07-25T12:07:47.501Z,100076.09
2022-07-25T12:10:35.083Z,100078.84
2022-07-25T12:13:04.069Z,100074.16
2022-07-25T12:15:33.594Z,100066.00
2022-07-25T12:18:01.878Z,100070.22
2022-07-25T12:20:31.170Z,100072.84
2022-07-25T12:23:04.695Z,100070.81
2022-07-25T12:25:32.502Z,100066.59
2022-07-25T12:28:00.487Z,100071.88
2022-07-25T12:30:34.305Z,100067.00
2022-07-25T12:33:01.674Z,100066.56
2022-07-25T12:35:29.400Z,100060.16
2022-07-25T12:37:56.297Z,100060.25
2022-07-25T12:40:23.755Z,100060.59
2022-07-25T12:42:51.123Z,100066.72
2022-07-25T12:45:18.006Z,100055.25
2022-07-25T12:47:46.383Z,100064.00
2022-07-25T12:50:13.809Z,100060.25
2022-07-25T12:52:41.086Z,100062.22
2022-07-25T12:55:09.645Z,100060.31
2022-07-25T12:57:37.391Z,100065.28
2022-07-25T13:00:09.920Z,100065.81
2022-07-25T13:02:36.609Z,100064.81
2022-07-25T13:05:03.962Z,100065.28
2022-07-25T13:07:30.566Z,100068.31
2022-07-25T13:09:57.104Z,100065.25
2022-07-25T13:12:24.154Z,100069.28
2022-07-25T13:14:51.526Z,100070.09
2022-07-25T13:17:19.714Z,100064.50
2022-07-25T13:19:48.987Z,100068.50
2022-07-25T13:22:15.558Z,100069.81
2022-07-25T13:24:42.108Z,100072.44
2022-07-25T13:27:08.654Z,100078.63
2022-07-25T13:29:35.194Z,100066.34
2022-07-25T13:32:02.490Z,100079.59
2022-07-25T13:34:29.208Z,100087.72
2022-07-25T13:36:55.834Z,100094.31
2022-07-25T13:39:22.509Z,100085.47
2022-07-25T13:41:49.806Z,100093.78
2022-07-25T13:44:16.339Z,100098.69
2022-07-25T13:46:46.030Z,100089.22
2022-07-25T13:49:12.964Z,100100.63
2022-07-25T13:51:39.539Z,100111.38
2022-07-25T13:54:06.094Z,100093.25
2022-07-25T13:56:33.456Z,100119.97
2022-07-25T13:59:00.096Z,100116.06
2022-07-25T14:01:28.611Z,100112.63
2022-07-25T14:03:55.589Z,100118.72
2022-07-25T14:06:22.491Z,100109.44
2022-07-25T14:08:49.040Z,100105.06
2022-07-25T14:11:15.518Z,100117.63
2022-07-25T14:13:43.618Z,100118.44
2022-07-25T14:16:10.502Z,100121.84
2022-07-25T14:18:37.095Z,100123.28
2022-07-25T14:21:03.931Z,100122.75
2022-07-25T14:23:30.521Z,100104.78
2022-07-25T14:25:58.931Z,100122.09
2022-07-25T14:28:25.940Z,100112.84
2022-07-25T14:30:52.444Z,100110.50
2022-07-25T14:33:19.119Z,100123.88
2022-07-25T14:35:45.655Z,100116.22
2022-07-25T14:38:12.131Z,100118.72
2022-07-25T14:40:38.759Z,100126.63
2022-07-25T14:43:05.316Z,100114.63
2022-07-25T14:45:33.021Z,100107.72
2022-07-25T14:47:59.663Z,100102.31
2022-07-25T14:50:27.528Z,100119.94
2022-07-25T14:52:54.322Z,100120.97
2022-07-25T14:55:22.224Z,100134.75
2022-07-25T14:57:48.760Z,100109.75
2022-07-25T15:00:15.585Z,100130.13
2022-07-25T15:02:42.892Z,100119.59
2022-07-25T15:05:09.778Z,100109.69
2022-07-25T15:07:37.796Z,100129.34
2022-07-25T15:10:04.916Z,100116.94
2022-07-25T15:12:31.525Z,100120.25
2022-07-25T15:14:58.017Z,100137.28
2022-07-25T15:17:24.510Z,100131.38
2022-07-25T15:19:51.037Z,100131.50
2022-07-25T15:22:17.506Z,100142.56
2022-07-25T15:25:17.870Z,100148.97
2022-07-25T15:27:31.209Z,100143.53
2022-07-25T15:29:57.724Z,100138.38
2022-07-25T15:32:24.195Z,100153.47
2022-07-25T15:34:50.655Z,100155.75
2022-07-25T15:37:17.154Z,100151.75
2022-07-25T15:39:44.985Z,100153.28
2022-07-25T15:42:11.470Z,100162.69
2022-07-25T15:44:38.016Z,100167.31
2022-07-25T15:47:06.631Z,100169.97
2022-07-25T15:49:33.335Z,100174.19
2022-07-25T15:52:00.174Z,100171.19
2022-07-25T15:54:29.544Z,100183.00
2022-07-25T15:56:56.384Z,100176.88
2022-07-25T15:59:22.976Z,100188.78
2022-07-25T16:01:49.499Z,100185.41
2022-07-25T16:04:16.127Z,100178.19
2022-07-25T16:06:42.991Z,100199.50
2022-07-25T16:09:12.085Z,100198.19
2022-07-25T16:11:38.775Z,100199.94
2022-07-25T16:14:05.534Z,100189.03
2022-07-25T16:16:32.283Z,100200.50
2022-07-25T16:18:59.079Z,100193.81
2022-07-25T16:21:25.784Z,100213.47
2022-07-25T16:23:52.516Z,100209.94
2022-07-25T16:26:19.248Z,100214.03
2022-07-25T16:28:47.439Z,100216.44
2022-07-25T16:31:14.213Z,100237.16
2022-07-25T16:33:42.783Z,100235.94
2022-07-25T16:36:11.053Z,100234.06
2022-07-25T16:38:37.629Z,100236.00
2022-07-25T16:41:04.247Z,100240.41
2022-07-25T16:43:30.761Z,100246.56
2022-07-25T16:45:58.067Z,100247.44
2022-07-25T16:48:25.095Z,100234.72
2022-07-25T16:50:51.763Z,100230.50
2022-07-25T16:53:18.966Z,100254.84
2022-07-25T16:55:46.110Z,100257.72
2022-07-25T16:58:12.930Z,100258.75
2022-07-25T17:00:40.851Z,100259.94
2022-07-25T17:03:07.489Z,100256.09
2022-07-25T17:05:35.541Z,100260.06
2022-07-25T17:08:02.916Z,100256.88
2022-07-25T17:10:31.486Z,100250.75
2022-07-25T17:12:58.968Z,100267.28
2022-07-25T17:15:25.604Z,100259.69
2022-07-25T17:17:52.206Z,100254.81
2022-07-25T17:20:21.424Z,100250.50
2022-07-25T17:22:48.208Z,100248.56
2022-07-25T17:25:16.836Z,100244.00
2022-07-25T17:27:44.738Z,100243.06
2022-07-25T17:30:11.771Z,100248.47
2022-07-25T17:32:42.127Z,100244.00
2022-07-25T17:35:08.865Z,100250.47
2022-07-25T17:37:36.036Z,100253.97
2022-07-25T17:40:02.764Z,100253.09
2022-07-25T17:42:32.510Z,100252.13
2022-07-25T17:45:00.301Z,100261.22
2022-07-25T17:47:27.058Z,100259.22
2022-07-25T17:49:53.590Z,100258.09
2022-07-25T17:52:21.863Z,100261.44
2022-07-25T17:54:51.969Z,100263.22
2022-07-25T17:57:19.222Z,100264.75
2022-07-25T17:59:45.722Z,100257.44
2022-07-25T18:02:12.335Z,100263.78
2022-07-25T18:04:38.836Z,100272.69
2022-07-25T18:07:05.479Z,100264.22
2022-07-25T18:09:33.454Z,100263.53
2022-07-25T18:12:00.214Z,100265.69
2022-07-25T18:14:29.653Z,100263.22
2022-07-25T18:16:57.541Z,100265.63
2022-07-25T18:19:25.132Z,100264.88
2022-07-25T18:21:52.223Z,100265.94
2022-07-25T18:24:19.298Z,100264.19
2022-07-25T18:26:46.531Z,100278.72
2022-07-25T18:29:13.118Z,100277.06
2022-07-25T18:31:39.755Z,100278.38
2022-07-25T18:34:06.573Z,100283.66
2022-07-25T18:36:33.593Z,100286.78
2022-07-25T18:39:00.549Z,100287.63
2022-07-25T18:41:29.687Z,100287.56
2022-07-25T18:43:57.019Z,100287.56
2022-07-25T18:46:24.019Z,100286.88
2022-07-25T18:48:50.720Z,100282.25
2022-07-25T18:51:17.429Z,100284.28
2022-07-25T18:53:48.058Z,100290.69
2022-07-25T18:56:15.910Z,100298.00
2022-07-25T18:58:42.550Z,100300.03
2022-07-25T19:01:09.498Z,100295.94
2022-07-25T19:03:37.497Z,100300.31
2022-07-25T19:06:05.282Z,100312.28
2022-07-25T19:08:32.542Z,100315.00
2022-07-25T19:10:59.359Z,100314.16
2022-07-25T19:13:48.146Z,100321.78
2022-07-25T19:16:13.413Z,100331.28
2022-07-25T19:18:42.716Z,100326.22
2022-07-25T19:21:09.501Z,100329.56
2022-07-25T19:23:36.002Z,100334.28
2022-07-25T19:26:03.322Z,100338.31
2022-07-25T19:28:30.333Z,100343.97
2022-07-25T19:30:57.303Z,100344.22
2022-07-25T19:33:24.398Z,100346.50
2022-07-25T19:35:51.010Z,100349.66
2022-07-25T19:38:19.550Z,100362.69
2022-07-25T19:40:46.446Z,100365.44
2022-07-25T19:43:13.746Z,100367.63
2022-07-25T19:45:40.695Z,100381.03
2022-07-25T19:48:07.754Z,100372.88
2022-07-25T19:50:34.672Z,100380.47
2022-07-25T19:53:01.623Z,100381.06
2022-07-25T19:55:28.708Z,100386.59
2022-07-25T19:57:55.694Z,100397.00
2022-07-25T20:00:23.014Z,100391.63
2022-07-25T20:02:49.583Z,100400.16
2022-07-25T20:05:17.355Z,100411.22
2022-07-25T20:07:43.842Z,100403.91
2022-07-25T20:10:10.848Z,100416.06
2022-07-25T20:12:38.172Z,100419.38
2022-07-25T20:15:05.413Z,100419.66
2022-07-25T20:17:31.936Z,100418.97
2022-07-25T20:19:58.655Z,100423.28
2022-07-25T20:22:25.874Z,100423.16
2022-07-25T20:24:52.574Z,100428.25
2022-07-25T20:27:19.245Z,100430.38
2022-07-25T20:29:46.267Z,100427.91
2022-07-25T20:32:12.807Z,100417.44
2022-07-25T20:34:39.492Z,100416.75
2022-07-25T20:37:05.993Z,100429.25
2022-07-25T20:39:32.676Z,100433.72
2022-07-25T20:41:59.285Z,100428.28
2022-07-25T20:44:25.842Z,100439.03
2022-07-25T20:46:52.478Z,100434.47
2022-07-25T20:49:19.110Z,100433.59
2022-07-25T20:51:49.824Z,100426.25
2022-07-25T20:54:19.161Z,100432.97
2022-07-25T20:56:45.734Z,100430.63
2022-07-25T20:59:12.492Z,100431.19
2022-07-25T21:01:40.017Z,100438.97
2022-07-25T21:04:07.754Z,100438.88
2022-07-25T21:06:34.836Z,100444.06
2022-07-25T21:09:04.131Z,100441.63
2022-07-25T21:11:30.844Z,100434.97
2022-07-25T21:13:57.465Z,100453.94
2022-07-25T21:16:24.157Z,100449.91
2022-07-25T21:18:50.683Z,100458.09
2022-07-25T21:21:17.622Z,100458.75
2022-07-25T21:23:44.260Z,100448.47
2022-07-25T21:26:12.501Z,100457.78
2022-07-25T21:28:39.037Z,100460.66
2022-07-25T21:31:05.636Z,100460.66
2022-07-25T21:33:32.519Z,100471.66
2022-07-25T21:35:59.305Z,100469.06
2022-07-25T21:38:28.849Z,100463.50
2022-07-25T21:40:58.491Z,100467.28
2022-07-25T21:43:25.071Z,100465.38
2022-07-25T21:45:51.955Z,100475.31
2022-07-25T21:48:22.047Z,100465.69
2022-07-25T21:50:50.452Z,100474.44
2022-07-25T21:53:17.276Z,100484.09
2022-07-25T21:55:43.746Z,100473.88
2022-07-25T21:58:10.254Z,100480.59
2022-07-25T22:00:43.929Z,100482.06
2022-07-25T22:03:12.015Z,100478.84
2022-07-25T22:05:39.263Z,100482.91
2022-07-25T22:08:05.916Z,100484.00
2022-07-25T22:10:33.540Z,100465.72
2022-07-25T22:13:00.231Z,100490.94
2022-07-25T22:15:27.419Z,100486.66
2022-07-25T22:17:54.153Z,100492.34
2022-07-25T22:20:21.211Z,100498.53
2022-07-25T22:22:48.517Z,100498.69
2022-07-25T22:25:15.835Z,100503.09
2022-07-25T22:27:43.235Z,100501.31
2022-07-25T22:30:16.156Z,100507.72
2022-07-25T22:32:45.655Z,100503.84
2022-07-25T22:35:12.793Z,100510.34
2022-07-25T22:37:39.399Z,100512.31
2022-07-25T22:40:06.426Z,100513.41
2022-07-25T22:42:32.877Z,100506.81
2022-07-25T22:44:59.340Z,100500.41
2022-07-25T22:47:25.832Z,100512.81
2022-07-25T22:49:52.306Z,100514.59
2022-07-25T22:52:18.794Z,100515.94
2022-07-25T22:54:45.432Z,100522.97
2022-07-25T22:57:11.985Z,100525.88
2022-07-25T22:59:38.466Z,100526.25
2022-07-25T23:02:05.045Z,100524.44
2022-07-25T23:04:31.678Z,100515.75
2022-07-25T23:06:58.155Z,100531.78
2022-07-25T23:09:24.849Z,100529.81
2022-07-25T23:12:03.040Z,100533.06
2022-07-25T23:14:29.824Z,100518.31
2022-07-25T23:17:14.939Z,100532.31
2022-07-25T23:19:41.385Z,100525.88
2022-07-25T23:22:07.827Z,100536.84
2022-07-25T23:24:37.601Z,100531.44
2022-07-25T23:27:05.124Z,100523.94
2022-07-25T23:29:31.665Z,100537.63
2022-07-25T23:31:58.313Z,100524.34
2022-07-25T23:34:24.868Z,100527.25
2022-07-25T23:36:51.358Z,100522.22
2022-07-25T23:39:17.841Z,100530.69
2022-07-25T23:41:44.310Z,100535.72
2022-07-25T23:44:11.130Z,100532.22
2022-07-25T23:46:38.668Z,100530.84
2022-07-25T23:49:06.532Z,100529.97
2022-07-25T23:51:33.312Z,100528.78
2022-07-25T23:53:59.861Z,100537.69
2022-07-25T23:56:26.677Z,100533.41
2022-07-25T23:58:53.257Z,100534.00
